Time;durP1;ratioP1;P1;durP2;ratioP2;P2;SDS_P1;SDS_P2;PMS_P1;PMS_P2;Temp;Humidity;BMP_temperature;BMP_pressure;BME280_temperature;BME280_humidity;BME280_pressure;Samples;Min_cycle;Max_cycle;Signal;HPM_P1;HPM_P2
2022/11/24 00:01:55;;;;;;;22.85;7.90;;;7.70;99.90;;;;;;5108186;27;20046;-79
2022/11/24 00:04:21;;;;;;;18.80;8.40;;;7.70;99.90;;;;;;5108640;27;20087;-79
2022/11/24 00:06:47;;;;;;;24.02;9.20;;;7.70;99.90;;;;;;5124410;27;20051;-79
2022/11/24 00:09:12;;;;;;;23.75;8.43;;;7.70;99.90;;;;;;5108202;27;20085;-78
2022/11/24 00:11:39;;;;;;;26.10;8.82;;;7.70;99.90;;;;;;5124619;27;20043;-79
2022/11/24 00:14:05;;;;;;;26.95;8.90;;;7.70;99.90;;;;;;5124995;27;20533;-78
2022/11/24 00:16:33;;;;;;;18.33;8.15;;;7.60;99.90;;;;;;5124608;27;20047;-78
2022/11/24 00:19:02;;;;;;;20.88;8.10;;;7.60;99.90;;;;;;5126092;27;20135;-78
2022/11/24 00:21:29;;;;;;;26.55;8.60;;;7.80;99.90;;;;;;5125578;27;20057;-78
2022/11/24 00:23:56;;;;;;;16.35;8.50;;;7.60;99.90;;;;;;5124648;27;20184;-78
2022/11/24 00:26:30;;;;;;;15.57;8.70;;;8.00;99.90;;;;;;5125346;27;20383;-78
2022/11/24 00:28:58;;;;;;;24.20;8.20;;;7.90;99.90;;;;;;5124764;27;20050;-78
2022/11/24 00:31:25;;;;;;;26.77;8.35;;;7.50;99.90;;;;;;5108051;27;20405;-79
2022/11/24 00:33:54;;;;;;;16.30;7.95;;;7.50;99.90;;;;;;5124774;27;20043;-78
2022/11/24 00:36:22;;;;;;;19.73;7.60;;;7.50;99.90;;;;;;5125001;27;20131;-78
2022/11/24 00:38:53;;;;;;;17.52;8.02;;;8.30;99.90;;;;;;5126990;27;20430;-78
2022/11/24 00:41:18;;;;;;;23.45;7.93;;;7.50;99.90;;;;;;5124778;27;20051;-79
2022/11/24 00:43:44;;;;;;;12.10;7.25;;;7.40;99.90;;;;;;5107467;27;20505;-78
2022/11/24 00:46:10;;;;;;;18.60;7.35;;;8.30;99.90;;;;;;5123865;27;20513;-79
2022/11/24 00:48:36;;;;;;;16.80;7.80;;;7.40;99.90;;;;;;5107207;27;20086;-78
2022/11/24 00:51:05;;;;;;;19.35;7.32;;;8.20;99.90;;;;;;5125789;27;20375;-79
2022/11/24 00:53:31;;;;;;;26.58;8.60;;;7.40;99.90;;;;;;5124607;27;20616;-78
2022/11/24 00:55:56;;;;;;;18.58;7.28;;;8.00;99.90;;;;;;5107400;28;20346;-79
2022/11/24 00:58:23;;;;;;;17.35;7.45;;;7.30;99.90;;;;;;5125384;27;20039;-78
2022/11/24 01:00:50;;;;;;;19.63;7.28;;;7.30;99.90;;;;;;5125716;27;20084;-79
2022/11/24 01:03:17;;;;;;;24.38;7.80;;;7.30;99.90;;;;;;5125219;27;20031;-78
2022/11/24 01:05:42;;;;;;;18.90;8.38;;;8.00;99.90;;;;;;5125754;27;20039;-79
2022/11/24 01:08:09;;;;;;;23.38;6.50;;;8.00;99.90;;;;;;5125750;27;20450;-79
2022/11/24 01:10:35;;;;;;;23.42;7.57;;;8.30;99.90;;;;;;5125366;27;20050;-79
2022/11/24 01:13:00;;;;;;;22.15;6.97;;;7.40;99.90;;;;;;5124346;28;20047;-79
2022/11/24 01:15:28;;;;;;;29.13;7.47;;;8.10;99.90;;;;;;5125213;28;20039;-79
2022/11/24 01:17:55;;;;;;;25.45;7.90;;;7.40;99.90;;;;;;5125979;27;20050;-80
2022/11/24 01:20:21;;;;;;;30.10;8.02;;;7.40;99.90;;;;;;5124364;28;20053;-79
2022/11/24 01:22:49;;;;;;;23.98;6.40;;;7.30;99.90;;;;;;5124777;28;20481;-80
2022/11/24 01:25:15;;;;;;;21.50;6.32;;;7.30;99.90;;;;;;5090405;28;20058;-80
2022/11/24 01:27:41;;;;;;;22.77;6.80;;;7.30;99.90;;;;;;5124318;28;20043;-80
2022/11/24 01:30:07;;;;;;;26.55;8.38;;;7.30;99.90;;;;;;5125026;28;20050;-80
2022/11/24 01:32:35;;;;;;;24.75;7.05;;;7.30;99.90;;;;;;5126223;27;20051;-80
2022/11/24 01:35:01;;;;;;;21.23;5.85;;;7.30;99.90;;;;;;5132674;27;20054;-80
2022/11/24 01:37:27;;;;;;;21.92;5.90;;;7.30;99.90;;;;;;5128170;27;20425;-80
2022/11/24 01:39:52;;;;;;;24.38;5.97;;;7.20;99.90;;;;;;5128347;27;20070;-80
2022/11/24 01:42:18;;;;;;;24.60;5.55;;;7.20;99.90;;;;;;5146422;27;20179;-79
2022/11/24 01:44:44;;;;;;;25.23;5.57;;;7.70;99.90;;;;;;5146306;27;20042;-80
2022/11/24 01:47:33;;;;;;;26.38;5.53;;;7.70;99.90;;;;;;5128554;27;20493;-80
2022/11/24 01:50:01;;;;;;;27.33;6.47;;;7.40;99.90;;;;;;5146486;27;20080;-79
2022/11/24 01:52:35;;;;;;;22.83;5.88;;;7.50;99.90;;;;;;5110489;27;20035;-79
2022/11/24 01:55:24;;;;;;;24.10;6.68;;;7.10;99.90;;;;;;5129782;27;20045;-80
2022/11/24 01:58:02;;;;;;;19.92;4.78;;;7.10;99.90;;;;;;5131213;27;20079;-80
2022/11/24 02:00:27;;;;;;;20.45;5.22;;;7.20;99.90;;;;;;5131679;27;20066;-80
2022/11/24 02:02:53;;;;;;;23.38;5.07;;;7.20;99.90;;;;;;5131441;27;20540;-80
2022/11/24 02:05:32;;;;;;;21.35;4.80;;;8.20;99.90;;;;;;5149929;27;20507;-80
2022/11/24 02:08:00;;;;;;;30.65;5.97;;;7.30;99.90;;;;;;5149642;27;20066;-80
2022/11/24 02:10:27;;;;;;;21.65;6.95;;;8.20;99.90;;;;;;5150179;27;20042;-79
2022/11/24 02:12:56;;;;;;;24.42;4.97;;;7.30;99.90;;;;;;5131346;27;20050;-80
2022/11/24 02:15:23;;;;;;;29.13;5.57;;;7.50;99.90;;;;;;5131061;27;20096;-79
2022/11/24 02:17:48;;;;;;;31.02;4.55;;;7.30;99.90;;;;;;5114241;27;20502;-80
2022/11/24 02:20:15;;;;;;;24.85;4.80;;;7.40;99.90;;;;;;5131099;27;20103;-79
2022/11/24 02:22:43;;;;;;;25.98;6.20;;;7.30;99.90;;;;;;5149847;27;20039;-80
2022/11/24 02:25:32;;;;;;;25.45;4.97;;;7.40;99.90;;;;;;5149623;27;20048;-80
2022/11/24 02:28:00;;;;;;;28.75;5.30;;;7.40;99.90;;;;;;5130965;27;20130;-80
2022/11/24 02:30:26;;;;;;;29.80;5.93;;;7.40;99.90;;;;;;5149813;27;20413;-80
2022/11/24 02:32:53;;;;;;;31.30;5.22;;;8.10;99.90;;;;;;5130146;27;20038;-80
2022/11/24 02:35:19;;;;;;;20.17;4.25;;;8.10;99.90;;;;;;5148639;27;20054;-80
2022/11/24 02:37:44;;;;;;;28.05;5.78;;;8.10;99.90;;;;;;5148869;27;20086;-79
2022/11/24 02:40:13;;;;;;;18.88;3.80;;;7.40;99.90;;;;;;5149514;27;20031;-79
2022/11/24 02:42:43;;;;;;;23.73;4.25;;;7.50;99.90;;;;;;5149272;27;20407;-80
2022/11/24 02:45:10;;;;;;;18.25;3.75;;;7.40;99.90;;;;;;5130040;27;20514;-80
2022/11/24 02:47:35;;;;;;;28.45;4.70;;;7.30;99.90;;;;;;5149588;27;20046;-80
2022/11/24 02:50:01;;;;;;;17.85;4.00;;;7.30;99.90;;;;;;5149009;27;20478;-80
2022/11/24 02:52:27;;;;;;;23.30;3.97;;;7.30;99.90;;;;;;5113179;27;20398;-80
2022/11/24 02:54:52;;;;;;;26.15;4.72;;;7.70;99.90;;;;;;5113249;27;20041;-80
2022/11/24 02:57:18;;;;;;;20.85;4.30;;;7.20;99.90;;;;;;5149235;27;20532;-80
2022/11/24 02:59:45;;;;;;;26.23;4.18;;;8.30;99.90;;;;;;5129912;27;20393;-79
2022/11/24 03:02:11;;;;;;;25.63;4.20;;;7.20;99.90;;;;;;5130449;27;20176;-80
2022/11/24 03:04:36;;;;;;;29.55;5.22;;;7.20;99.90;;;;;;5148706;27;20542;-79
2022/11/24 03:07:02;;;;;;;15.68;4.22;;;7.20;99.90;;;;;;5147228;27;20043;-80
2022/11/24 03:09:29;;;;;;;29.52;7.25;;;7.70;99.90;;;;;;5112691;27;20057;-80
2022/11/24 03:11:54;;;;;;;23.13;4.05;;;7.80;99.90;;;;;;5112297;27;20171;-80
2022/11/24 03:14:20;;;;;;;22.95;3.95;;;7.20;99.90;;;;;;5130169;27;20129;-80
2022/11/24 03:16:46;;;;;;;27.80;3.65;;;7.80;99.90;;;;;;5112416;27;20038;-79
2022/11/24 03:19:11;;;;;;;18.35;3.47;;;7.20;99.90;;;;;;5113062;27;20051;-80
2022/11/24 03:21:37;;;;;;;26.80;5.75;;;7.20;99.90;;;;;;5130158;27;20485;-79
2022/11/24 03:24:03;;;;;;;24.83;4.90;;;7.20;99.90;;;;;;5130132;27;20131;-79
2022/11/24 03:26:28;;;;;;;29.70;4.15;;;7.30;99.90;;;;;;5129322;27;20054;-79
2022/11/24 03:28:56;;;;;;;24.35;4.10;;;7.30;99.90;;;;;;5112649;27;20602;-79
2022/11/24 03:31:22;;;;;;;19.08;4.32;;;8.00;99.90;;;;;;5129848;27;20046;-80
2022/11/24 03:33:49;;;;;;;29.77;4.88;;;7.30;99.90;;;;;;5112798;27;20039;-80
2022/11/24 03:36:15;;;;;;;24.02;4.45;;;7.30;99.90;;;;;;5129445;27;20110;-79
2022/11/24 03:38:41;;;;;;;17.25;3.75;;;7.90;99.90;;;;;;5112303;27;20060;-80
2022/11/24 03:41:07;;;;;;;17.40;3.78;;;8.10;99.90;;;;;;5094777;27;20050;-79
2022/11/24 03:43:33;;;;;;;20.40;3.70;;;7.30;99.90;;;;;;5112329;27;20039;-79
2022/11/24 03:45:58;;;;;;;21.92;4.13;;;7.30;99.90;;;;;;5094382;27;20034;-80
2022/11/24 03:48:24;;;;;;;22.63;3.47;;;7.30;99.90;;;;;;5095155;27;20046;-79
2022/11/24 03:50:57;;;;;;;16.45;3.60;;;7.40;99.90;;;;;;5094615;27;20455;-79
2022/11/24 03:53:25;;;;;;;16.30;4.30;;;8.30;99.90;;;;;;5112871;27;20049;-80
2022/11/24 03:55:51;;;;;;;26.15;3.95;;;7.40;99.90;;;;;;5129436;27;20374;-80
2022/11/24 03:58:17;;;;;;;20.67;3.38;;;7.40;99.90;;;;;;5128784;27;20042;-80
2022/11/24 04:00:43;;;;;;;25.45;3.47;;;7.10;99.90;;;;;;5128416;27;20046;-79
2022/11/24 04:03:08;;;;;;;16.42;3.88;;;7.40;99.90;;;;;;5129360;27;20039;-79
2022/11/24 04:05:35;;;;;;;15.82;2.83;;;7.40;99.90;;;;;;5147413;27;20407;-80
2022/11/24 04:08:02;;;;;;;25.25;4.43;;;8.20;99.90;;;;;;5128166;27;20058;-79
2022/11/24 04:10:29;;;;;;;16.27;3.75;;;7.80;99.90;;;;;;5128766;27;20051;-80
2022/11/24 04:12:54;;;;;;;18.20;3.28;;;7.40;99.90;;;;;;5128730;27;20042;-80
2022/11/24 04:15:21;;;;;;;14.57;2.80;;;7.40;99.90;;;;;;5129135;27;20524;-79
2022/11/24 04:17:47;;;;;;;25.52;5.43;;;7.30;99.90;;;;;;5110566;27;20034;-79
2022/11/24 04:20:14;;;;;;;17.73;3.00;;;7.50;99.90;;;;;;5111247;27;20386;-80
2022/11/24 04:22:40;;;;;;;22.73;3.63;;;7.80;99.90;;;;;;5128515;27;20099;-80
2022/11/24 04:25:07;;;;;;;28.48;4.25;;;7.20;99.90;;;;;;5111164;27;20047;-80
2022/11/24 04:27:35;;;;;;;18.73;3.60;;;7.20;99.90;;;;;;5111559;27;20091;-80
2022/11/24 04:30:01;;;;;;;18.30;3.13;;;8.10;99.90;;;;;;5111252;27;20039;-79
2022/11/24 04:32:27;;;;;;;20.45;4.10;;;7.30;99.90;;;;;;5128612;27;20478;-80
2022/11/24 04:34:53;;;;;;;28.38;3.85;;;8.40;99.90;;;;;;5128106;27;20046;-80
2022/11/24 04:37:18;;;;;;;16.13;3.35;;;7.70;99.90;;;;;;5110925;27;20100;-80
2022/11/24 04:39:45;;;;;;;20.23;3.65;;;7.30;99.90;;;;;;5127729;27;20098;-80
2022/11/24 04:42:11;;;;;;;23.25;3.83;;;7.20;99.90;;;;;;5110536;27;20039;-80
2022/11/24 04:44:37;;;;;;;17.85;2.78;;;7.20;99.90;;;;;;5111081;27;20039;-80
2022/11/24 04:47:03;;;;;;;17.70;3.03;;;7.20;99.90;;;;;;5110304;27;20089;-80
2022/11/24 04:49:29;;;;;;;26.92;3.40;;;7.20;99.90;;;;;;5128418;27;20047;-80
2022/11/24 04:51:55;;;;;;;20.10;3.65;;;7.20;99.90;;;;;;5128304;27;20366;-80
2022/11/24 04:54:21;;;;;;;16.77;3.25;;;7.20;99.90;;;;;;5093974;27;20069;-80
2022/11/24 04:56:53;;;;;;;20.00;3.95;;;7.20;99.90;;;;;;5093921;27;20041;-80
2022/11/24 04:59:19;;;;;;;19.15;3.55;;;7.20;99.90;;;;;;5110111;27;20042;-80
2022/11/24 05:01:45;;;;;;;22.63;3.47;;;7.70;99.90;;;;;;5111581;27;20407;-80
2022/11/24 05:04:13;;;;;;;27.77;3.75;;;7.40;99.90;;;;;;5110555;27;20035;-78
2022/11/24 05:06:39;;;;;;;21.95;3.20;;;7.70;99.90;;;;;;5111186;27;20289;-78
2022/11/24 05:09:05;;;;;;;17.95;3.10;;;7.10;99.90;;;;;;5111015;27;20078;-78
2022/11/24 05:11:32;;;;;;;18.95;3.35;;;7.10;99.90;;;;;;5127421;27;20501;-79
2022/11/24 05:13:58;;;;;;;24.45;3.00;;;7.90;99.90;;;;;;5127498;27;20512;-78
2022/11/24 05:16:24;;;;;;;16.27;2.88;;;7.50;99.90;;;;;;5127203;27;20051;-78
2022/11/24 05:18:50;;;;;;;15.63;2.50;;;7.80;99.90;;;;;;5129101;27;20631;-78
2022/11/24 05:21:15;;;;;;;26.65;3.17;;;7.00;99.90;;;;;;5127125;27;20042;-78
2022/11/24 05:23:41;;;;;;;22.13;3.55;;;7.40;99.90;;;;;;5127925;27;20048;-78
2022/11/24 05:26:07;;;;;;;18.98;2.97;;;7.00;99.90;;;;;;5127600;27;20042;-79
2022/11/24 05:28:32;;;;;;;23.88;4.03;;;8.00;99.90;;;;;;5127606;27;20126;-78
2022/11/24 05:31:00;;;;;;;17.38;2.67;;;7.00;99.90;;;;;;5132227;27;20546;-79
2022/11/24 05:33:27;;;;;;;19.85;3.45;;;7.80;99.90;;;;;;5114478;27;20038;-79
2022/11/24 05:35:53;;;;;;;18.55;4.05;;;6.90;99.90;;;;;;5114608;27;20423;-79
2022/11/24 05:38:21;;;;;;;24.55;3.15;;;6.90;99.90;;;;;;5080650;27;20179;-79
2022/11/24 05:40:47;;;;;;;24.70;2.97;;;7.20;99.90;;;;;;5115104;27;20126;-79
2022/11/24 05:43:14;;;;;;;19.00;2.10;;;6.90;99.90;;;;;;5114666;27;20080;-78
2022/11/24 05:45:40;;;;;;;20.20;2.65;;;7.50;99.90;;;;;;5131266;27;20034;-80
2022/11/24 05:48:09;;;;;;;15.90;3.28;;;7.90;99.90;;;;;;5131251;27;20043;-80
2022/11/24 05:50:34;;;;;;;21.35;2.85;;;6.80;99.90;;;;;;5131113;27;20049;-80
2022/11/24 05:53:05;;;;;;;20.23;2.72;;;6.80;99.90;;;;;;5114459;27;20043;-80
2022/11/24 05:55:31;;;;;;;12.82;2.63;;;6.80;99.90;;;;;;5113971;27;20324;-80
2022/11/24 05:58:02;;;;;;;16.95;2.85;;;6.80;99.90;;;;;;5114494;27;20545;-80
2022/11/24 06:00:29;;;;;;;22.67;3.38;;;6.90;99.90;;;;;;5114000;27;20130;-78
2022/11/24 06:02:58;;;;;;;17.90;3.15;;;7.40;99.90;;;;;;5131231;27;20485;-80
2022/11/24 06:05:26;;;;;;;17.17;3.15;;;6.90;99.90;;;;;;5113663;27;20547;-80
2022/11/24 06:07:52;;;;;;;19.23;3.22;;;7.00;99.90;;;;;;5113595;27;20522;-80
2022/11/24 06:10:19;;;;;;;19.02;5.03;;;6.90;99.90;;;;;;5114725;27;20380;-79
2022/11/24 06:12:46;;;;;;;27.23;3.22;;;6.90;99.90;;;;;;5113819;27;20091;-80
2022/11/24 06:15:12;;;;;;;15.07;2.28;;;7.40;99.90;;;;;;5131260;27;20083;-80
2022/11/24 06:17:38;;;;;;;15.68;2.70;;;7.80;99.90;;;;;;5130903;27;20035;-80
2022/11/24 06:20:06;;;;;;;10.60;2.13;;;7.00;99.90;;;;;;5130837;27;20049;-80
2022/11/24 06:22:32;;;;;;;15.63;3.13;;;7.00;99.90;;;;;;5113897;27;20047;-81
2022/11/24 06:24:58;;;;;;;38.15;5.20;;;6.90;99.90;;;;;;5130095;27;20467;-80
2022/11/24 06:27:24;;;;;;;11.48;2.65;;;7.90;99.90;;;;;;5114194;27;20039;-80
2022/11/24 06:29:50;;;;;;;16.67;2.30;;;6.90;99.90;;;;;;5096322;27;20051;-80
2022/11/24 06:32:16;;;;;;;23.33;2.63;;;6.90;99.90;;;;;;5130916;27;20420;-79
2022/11/24 06:34:42;;;;;;;13.38;3.08;;;6.90;99.90;;;;;;5095723;27;20042;-81
2022/11/24 06:37:08;;;;;;;20.65;2.33;;;6.90;99.90;;;;;;5114095;27;20173;-81
2022/11/24 06:39:34;;;;;;;17.17;1.98;;;6.90;99.90;;;;;;5112827;27;20486;-80
2022/11/24 06:42:00;;;;;;;15.05;2.75;;;7.00;99.90;;;;;;5130698;27;20043;-80
2022/11/24 06:44:26;;;;;;;16.77;2.70;;;6.90;99.90;;;;;;5113387;27;20493;-83
2022/11/24 06:46:51;;;;;;;13.10;2.03;;;8.10;99.90;;;;;;5112856;27;20038;-80
2022/11/24 06:49:17;;;;;;;21.42;2.65;;;6.90;99.90;;;;;;5113802;27;20026;-79
2022/11/24 06:51:43;;;;;;;19.13;1.98;;;7.70;99.90;;;;;;5129686;27;20494;-80
2022/11/24 06:54:11;;;;;;;15.75;2.90;;;7.30;99.90;;;;;;5130249;27;20159;-78
2022/11/24 06:56:37;;;;;;;15.60;2.50;;;7.00;99.90;;;;;;5095977;27;20027;-78
2022/11/24 06:59:03;;;;;;;18.65;3.22;;;7.20;99.90;;;;;;5129846;27;20046;-78
2022/11/24 07:01:29;;;;;;;9.65;2.13;;;6.90;99.90;;;;;;5129970;27;20154;-79
2022/11/24 07:03:55;;;;;;;11.38;1.85;;;7.60;99.90;;;;;;5095903;27;20068;-80
2022/11/24 07:06:23;;;;;;;14.07;3.45;;;7.80;99.90;;;;;;5130178;27;20599;-80
2022/11/24 07:08:49;;;;;;;21.33;2.63;;;6.80;99.90;;;;;;5112032;27;20342;-82
2022/11/24 07:11:19;;;;;;;21.55;3.05;;;6.90;99.90;;;;;;5079741;27;20430;-81
2022/11/24 07:13:45;;;;;;;17.33;2.85;;;6.90;99.90;;;;;;5128797;27;20493;-82
2022/11/24 07:16:17;;;;;;;16.98;2.65;;;6.90;99.90;;;;;;5095632;27;20092;-81
2022/11/24 07:18:45;;;;;;;14.50;3.80;;;6.80;99.90;;;;;;5129545;27;20039;-81
2022/11/24 07:21:11;;;;;;;14.73;2.95;;;6.90;99.90;;;;;;5112071;27;20074;-81
2022/11/24 07:23:37;;;;;;;23.88;3.72;;;6.80;99.90;;;;;;5130233;27;20121;-81
2022/11/24 07:26:04;;;;;;;14.80;2.28;;;6.90;99.90;;;;;;5095071;27;20126;-81
2022/11/24 07:28:30;;;;;;;16.38;2.75;;;6.90;99.90;;;;;;5129887;27;20080;-81
2022/11/24 07:30:56;;;;;;;12.25;2.15;;;7.60;99.90;;;;;;5128828;27;20434;-81
2022/11/24 07:33:24;;;;;;;14.23;3.65;;;6.90;99.90;;;;;;5112036;27;20042;-81
2022/11/24 07:35:52;;;;;;;18.55;2.38;;;6.80;99.90;;;;;;5147716;27;20069;-81
2022/11/24 07:38:19;;;;;;;19.80;3.10;;;6.90;99.90;;;;;;5128591;27;20050;-81
2022/11/24 07:40:45;;;;;;;14.85;2.33;;;7.00;99.90;;;;;;5148790;27;20103;-80
2022/11/24 07:43:10;;;;;;;12.93;2.88;;;6.80;99.90;;;;;;5147132;27;20490;-81
2022/11/24 07:45:36;;;;;;;17.73;3.03;;;6.80;99.90;;;;;;5148354;27;20041;-81
2022/11/24 07:48:02;;;;;;;27.92;4.05;;;7.30;99.90;;;;;;5094185;27;20141;-81
2022/11/24 07:50:28;;;;;;;22.67;3.85;;;6.90;99.90;;;;;;5111964;27;20047;-82
2022/11/24 07:52:54;;;;;;;13.70;2.70;;;6.80;99.90;;;;;;5128109;27;20042;-81
2022/11/24 07:55:19;;;;;;;19.35;3.10;;;6.80;99.90;;;;;;5128361;27;20042;-81
2022/11/24 07:57:45;;;;;;;16.35;3.00;;;7.60;99.90;;;;;;5129133;27;20055;-81
2022/11/24 08:00:11;;;;;;;18.40;4.22;;;6.90;99.90;;;;;;5146910;27;20067;-81
2022/11/24 08:02:37;;;;;;;11.85;3.58;;;6.90;99.90;;;;;;5129431;27;20158;-81
2022/11/24 08:05:04;;;;;;;16.35;3.60;;;6.90;99.90;;;;;;5146532;27;20034;-81
2022/11/24 08:07:30;;;;;;;13.82;2.42;;;6.90;99.90;;;;;;5111188;27;20095;-82
2022/11/24 08:09:55;;;;;;;19.67;3.20;;;6.90;99.90;;;;;;5146600;27;20038;-81
2022/11/24 08:12:21;;;;;;;19.00;3.00;;;6.90;99.90;;;;;;5093969;27;20035;-81
2022/11/24 08:14:48;;;;;;;21.25;3.20;;;7.80;99.90;;;;;;5128473;27;20043;-81
2022/11/24 08:17:14;;;;;;;14.68;2.70;;;7.10;99.90;;;;;;5127410;27;20078;-82
2022/11/24 08:19:40;;;;;;;24.63;3.97;;;7.60;99.90;;;;;;5112003;27;20082;-81
2022/11/24 08:22:05;;;;;;;16.88;3.58;;;7.40;99.90;;;;;;5110142;27;20043;-81
2022/11/24 08:24:31;;;;;;;16.17;3.15;;;7.80;99.90;;;;;;5128451;27;20038;-81
2022/11/24 08:26:57;;;;;;;17.58;3.00;;;7.10;99.90;;;;;;5146303;27;20039;-82
2022/11/24 08:29:26;;;;;;;19.48;2.83;;;7.10;99.90;;;;;;5146813;27;20101;-81
2022/11/24 08:31:51;;;;;;;24.02;3.42;;;7.10;99.90;;;;;;5147370;27;20035;-81
2022/11/24 08:34:17;;;;;;;14.23;3.35;;;7.20;99.90;;;;;;5127247;27;20046;-80
2022/11/24 08:36:43;;;;;;;20.45;3.20;;;7.50;99.90;;;;;;5111282;27;20051;-81
2022/11/24 08:39:10;;;;;;;15.35;3.67;;;8.00;99.90;;;;;;5110216;27;20069;-81
2022/11/24 08:41:36;;;;;;;23.25;3.85;;;7.20;99.90;;;;;;5128342;27;20434;-81
2022/11/24 08:44:02;;;;;;;18.33;3.35;;;7.20;99.90;;;;;;5145868;27;20117;-81
2022/11/24 08:46:27;;;;;;;18.05;3.60;;;7.30;99.90;;;;;;5146438;27;20809;-82
2022/11/24 08:48:54;;;;;;;17.02;4.15;;;8.30;99.90;;;;;;5111241;27;20171;-81
2022/11/24 08:51:24;;;;;;;17.17;3.08;;;7.50;99.90;;;;;;5146250;27;20178;-81
2022/11/24 08:53:57;;;;;;;13.40;3.03;;;8.40;99.90;;;;;;5147506;27;20073;-82
2022/11/24 08:56:24;;;;;;;21.38;3.20;;;7.70;99.90;;;;;;5145876;27;20035;-81
2022/11/24 08:58:50;;;;;;;19.15;3.45;;;7.70;99.90;;;;;;5146825;27;20144;-82
2022/11/24 09:01:17;;;;;;;23.48;3.35;;;8.30;99.90;;;;;;5146028;27;20039;-82
2022/11/24 09:03:44;;;;;;;22.20;3.53;;;7.90;99.90;;;;;;5145397;27;20034;-82
2022/11/24 09:06:10;;;;;;;20.73;4.45;;;8.00;99.90;;;;;;5110784;27;20504;-81
2022/11/24 09:08:36;;;;;;;20.48;3.15;;;9.10;99.90;;;;;;5109877;27;20170;-82
2022/11/24 09:11:07;;;;;;;16.98;3.20;;;8.20;99.90;;;;;;5128904;27;20100;-81
2022/11/24 09:13:33;;;;;;;14.73;3.05;;;8.20;99.90;;;;;;5110417;27;20085;-81
2022/11/24 09:16:08;;;;;;;12.93;3.10;;;9.20;99.90;;;;;;5146883;27;20046;-81
2022/11/24 09:18:34;;;;;;;17.42;3.53;;;8.30;99.90;;;;;;5127544;27;20039;-81
2022/11/24 09:21:07;;;;;;;13.38;2.67;;;8.20;99.90;;;;;;5110170;27;20043;-81
2022/11/24 09:23:34;;;;;;;14.00;3.83;;;8.20;99.90;;;;;;5128203;27;20039;-81
2022/11/24 09:26:17;;;;;;;12.98;3.63;;;8.50;99.90;;;;;;5126536;27;20039;-82
2022/11/24 09:28:43;;;;;;;16.57;3.43;;;8.10;99.90;;;;;;5111164;27;20065;-82
2022/11/24 09:31:11;;;;;;;14.80;2.85;;;8.10;99.90;;;;;;5126582;27;20285;-81
2022/11/24 09:33:38;;;;;;;14.13;2.88;;;8.10;99.90;;;;;;5127050;27;20128;-81
2022/11/24 09:36:04;;;;;;;17.17;3.40;;;8.20;99.90;;;;;;5110538;27;20435;-81
2022/11/24 09:38:30;;;;;;;9.00;2.33;;;8.40;99.90;;;;;;5092431;27;20042;-81
2022/11/24 09:41:16;;;;;;;13.07;2.40;;;9.10;99.90;;;;;;5111600;27;20034;-81
2022/11/24 09:44:05;;;;;;;11.90;3.22;;;8.40;99.90;;;;;;5126487;27;20043;-81
2022/11/24 09:46:49;;;;;;;9.43;2.63;;;8.60;99.90;;;;;;5126683;27;20482;-79
2022/11/24 09:49:26;;;;;;;11.25;2.60;;;8.60;99.90;;;;;;5128409;27;20051;-79
2022/11/24 09:51:55;;;;;;;7.10;2.35;;;9.50;99.90;;;;;;5126361;27;20046;-79
2022/11/24 09:54:25;;;;;;;9.45;2.70;;;8.80;99.90;;;;;;5127487;27;20043;-83
2022/11/24 09:56:51;;;;;;;14.40;2.83;;;8.80;99.90;;;;;;5126382;27;20391;-81
2022/11/24 09:59:20;;;;;;;13.48;3.60;;;9.50;99.90;;;;;;5110388;27;20061;-81
2022/11/24 10:01:47;;;;;;;12.52;2.55;;;9.00;99.90;;;;;;5127248;27;20043;-83
2022/11/24 10:04:22;;;;;;;7.53;2.28;;;9.00;99.90;;;;;;5091864;27;20061;-82
2022/11/24 10:07:06;;;;;;;4.85;1.88;;;9.10;99.90;;;;;;5128028;27;20082;-82
2022/11/24 10:09:57;;;;;;;10.82;2.15;;;9.20;99.90;;;;;;5125952;27;20038;-82
2022/11/24 10:12:42;;;;;;;10.25;2.10;;;9.30;99.90;;;;;;5126490;27;20125;-83
2022/11/24 10:15:21;;;;;;;8.32;2.08;;;9.30;99.90;;;;;;5112420;27;20524;-82
2022/11/24 10:18:35;;;;;;;8.98;1.88;;;9.40;99.90;;;;;;5129468;27;20095;-81
2022/11/24 10:21:12;;;;;;;10.88;2.20;;;9.50;99.90;;;;;;5040072;27;20193;-80
2022/11/24 10:23:49;;;;;;;6.75;1.60;;;9.60;99.90;;;;;;5131305;27;20042;-80
2022/11/24 10:26:38;;;;;;;5.03;1.10;;;9.60;99.90;;;;;;5129144;27;20057;-83
2022/11/24 10:29:27;;;;;;;10.32;2.30;;;9.60;99.90;;;;;;5130527;27;20085;-79
2022/11/24 10:31:55;;;;;;;8.18;1.88;;;9.70;99.90;;;;;;5113755;27;20071;-81
2022/11/24 10:34:33;;;;;;;10.07;1.80;;;9.80;99.90;;;;;;5112383;27;20050;-81
2022/11/24 10:37:20;;;;;;;10.70;1.90;;;9.90;99.90;;;;;;5131946;27;20057;-81
2022/11/24 10:40:04;;;;;;;6.00;1.67;;;9.90;99.90;;;;;;5131418;27;20107;-81
2022/11/24 10:42:32;;;;;;;9.80;2.10;;;9.90;99.90;;;;;;5113968;27;20053;-82
2022/11/24 10:45:08;;;;;;;10.63;1.90;;;10.00;99.90;;;;;;5132371;27;20385;-82
2022/11/24 10:47:33;;;;;;;11.00;1.48;;;10.00;99.90;;;;;;5130003;27;20174;-83
2022/11/24 10:50:05;;;;;;;10.73;2.00;;;11.10;99.90;;;;;;5114308;27;20457;-81
2022/11/24 10:52:40;;;;;;;10.75;1.80;;;10.00;99.90;;;;;;5112330;27;20039;-81
2022/11/24 10:55:06;;;;;;;5.80;1.48;;;10.80;99.90;;;;;;5114001;27;20050;-80
2022/11/24 10:57:35;;;;;;;5.93;1.45;;;10.20;99.90;;;;;;5114481;27;20423;-81
2022/11/24 11:00:22;;;;;;;11.60;2.08;;;10.30;99.90;;;;;;5129015;27;20046;-82
2022/11/24 11:02:50;;;;;;;12.57;3.53;;;9.90;99.90;;;;;;5113484;27;20159;-82
2022/11/24 11:05:25;;;;;;;3.97;1.35;;;10.00;99.90;;;;;;5111756;27;20039;-82
2022/11/24 11:08:25;;;;;;;9.38;2.90;;;10.80;99.90;;;;;;5112926;27;20050;-82
2022/11/24 11:11:12;;;;;;;5.97;1.70;;;10.10;99.90;;;;;;5113936;27;20074;-82
2022/11/24 11:13:49;;;;;;;4.82;1.40;;;10.10;99.90;;;;;;5111191;27;20047;-82
2022/11/24 11:16:24;;;;;;;6.88;1.58;;;11.20;99.90;;;;;;5097080;27;20076;-82
2022/11/24 11:18:50;;;;;;;7.78;2.25;;;10.20;99.90;;;;;;5130372;27;20069;-81
2022/11/24 11:21:30;;;;;;;7.43;2.05;;;10.90;99.90;;;;;;5094474;27;20110;-81
2022/11/24 11:23:57;;;;;;;6.15;2.67;;;10.40;99.90;;;;;;5113326;27;20505;-81
2022/11/24 11:26:23;;;;;;;10.55;1.73;;;10.40;99.90;;;;;;5110217;27;20043;-81
2022/11/24 11:29:05;;;;;;;7.68;1.25;;;10.50;99.90;;;;;;5129770;27;20045;-82
2022/11/24 11:31:32;;;;;;;5.40;1.00;;;10.50;99.90;;;;;;5111713;27;20578;-82
2022/11/24 11:34:13;;;;;;;7.22;1.40;;;10.50;99.90;;;;;;5111811;27;20324;-82
2022/11/24 11:36:44;;;;;;;7.32;2.00;;;10.60;99.90;;;;;;5129972;27;20079;-82
2022/11/24 11:39:38;;;;;;;9.30;1.60;;;10.60;99.90;;;;;;5110807;27;20482;-82
2022/11/24 11:42:34;;;;;;;6.80;1.33;;;10.60;99.90;;;;;;5128825;27;20117;-82
2022/11/24 11:45:12;;;;;;;6.95;1.25;;;10.70;99.90;;;;;;5129838;27;20051;-82
2022/11/24 11:47:52;;;;;;;8.63;1.65;;;10.70;99.90;;;;;;5110248;27;20046;-81
2022/11/24 11:50:44;;;;;;;5.55;1.42;;;10.70;99.90;;;;;;5129527;27;20497;-82
2022/11/24 11:53:16;;;;;;;11.68;1.83;;;10.80;99.90;;;;;;5112431;27;20047;-84
2022/11/24 11:56:06;;;;;;;15.40;2.00;;;10.80;99.90;;;;;;5111588;27;20367;-83
2022/11/24 11:58:46;;;;;;;5.95;1.33;;;10.90;99.90;;;;;;5130410;27;20042;-83
2022/11/24 12:01:27;;;;;;;10.40;1.98;;;10.90;99.90;;;;;;5111279;27;20460;-83
2022/11/24 12:04:11;;;;;;;8.45;1.50;;;10.90;99.90;;;;;;5111263;27;20285;-83
2022/11/24 12:06:59;;;;;;;5.47;1.42;;;10.90;99.90;;;;;;5129852;27;20046;-83
2022/11/24 12:09:50;;;;;;;8.77;1.80;;;11.00;99.90;;;;;;5127465;27;20076;-84
2022/11/24 12:12:31;;;;;;;2.28;0.95;;;11.00;99.90;;;;;;5128280;27;20093;-84
2022/11/24 12:15:06;;;;;;;7.82;1.65;;;11.10;99.90;;;;;;5111997;27;20308;-84
2022/11/24 12:17:38;;;;;;;12.23;2.22;;;11.10;99.90;;;;;;5127258;27;20140;-84
2022/11/24 12:20:30;;;;;;;11.60;1.80;;;11.10;99.90;;;;;;5112762;27;20049;-84
2022/11/24 12:23:10;;;;;;;9.52;1.50;;;11.20;99.90;;;;;;5110772;27;20405;-85
2022/11/24 12:25:56;;;;;;;9.38;1.48;;;11.20;99.90;;;;;;5109624;27;20061;-85
2022/11/24 12:28:39;;;;;;;8.70;2.00;;;11.30;99.90;;;;;;5112338;27;20045;-84
2022/11/24 12:31:07;;;;;;;12.50;1.80;;;11.30;99.90;;;;;;5109850;27;20051;-85
2022/11/24 12:33:57;;;;;;;12.60;1.73;;;11.30;99.90;;;;;;5094358;27;20102;-88
2022/11/24 12:36:44;;;;;;;16.85;2.30;;;11.40;99.90;;;;;;5128170;27;20050;-84
2022/11/24 12:39:24;;;;;;;13.23;3.00;;;11.40;99.90;;;;;;5126878;27;20137;-84
2022/11/24 12:42:05;;;;;;;8.45;1.88;;;11.50;99.90;;;;;;5111448;27;20441;-84
2022/11/24 12:44:51;;;;;;;7.85;1.98;;;11.40;99.90;;;;;;5111445;27;20522;-82
2022/11/24 12:47:31;;;;;;;7.13;2.40;;;11.50;99.90;;;;;;5126431;27;20461;-81
2022/11/24 12:50:18;;;;;;;9.65;1.65;;;11.50;99.90;;;;;;5111718;27;20058;-87
2022/11/24 12:52:50;;;;;;;9.40;2.83;;;11.50;99.90;;;;;;5110024;27;20054;-82
2022/11/24 12:55:19;;;;;;;15.55;2.25;;;11.50;99.90;;;;;;5126747;27;20046;-84
2022/11/24 12:58:02;;;;;;;11.18;2.88;;;11.50;99.90;;;;;;5128602;27;20050;-84
2022/11/24 13:00:38;;;;;;;11.85;1.30;;;11.50;99.90;;;;;;5126717;27;20099;-84